sensor_id;sensor_type;location;lat;lon;timestamp;P1;durP1;ratioP1;P2;durP2;ratioP2
8177;SDS011;4130;48.740;9.132;2022-09-09T00:00:25;1.90;;;1.07;;
8177;SDS011;4130;48.740;9.132;2022-09-09T00:02:57;2.53;;;1.13;;
8177;SDS011;4130;48.740;9.132;2022-09-09T00:05:32;1.73;;;0.90;;
8177;SDS011;4130;48.740;9.132;2022-09-09T00:08:11;2.87;;;1.10;;
8177;SDS011;4130;48.740;9.132;2022-09-09T00:10:44;2.03;;;1.10;;
8177;SDS011;4130;48.740;9.132;2022-09-09T00:13:18;3.07;;;1.00;;
8177;SDS011;4130;48.740;9.132;2022-09-09T00:15:52;2.13;;;1.17;;
8177;SDS011;4130;48.740;9.132;2022-09-09T00:18:24;2.17;;;1.00;;
8177;SDS011;4130;48.740;9.132;2022-09-09T00:21:00;2.40;;;1.20;;
8177;SDS011;4130;48.740;9.132;2022-09-09T00:23:33;0.70;;;0.70;;
8177;SDS011;4130;48.740;9.132;2022-09-09T00:26:04;1.87;;;1.03;;
8177;SDS011;4130;48.740;9.132;2022-09-09T00:28:36;1.97;;;1.20;;
8177;SDS011;4130;48.740;9.132;2022-09-09T00:31:11;1.20;;;1.00;;
8177;SDS011;4130;48.740;9.132;2022-09-09T00:33:39;0.93;;;0.90;;
8177;SDS011;4130;48.740;9.132;2022-09-09T00:36:09;2.80;;;0.93;;
8177;SDS011;4130;48.740;9.132;2022-09-09T00:38:43;1.07;;;0.97;;
8177;SDS011;4130;48.740;9.132;2022-09-09T00:41:16;2.37;;;1.10;;
8177;SDS011;4130;48.740;9.132;2022-09-09T00:43:50;3.73;;;1.00;;
8177;SDS011;4130;48.740;9.132;2022-09-09T00:49:24;3.43;;;1.20;;
8177;SDS011;4130;48.740;9.132;2022-09-09T00:52:05;1.27;;;1.07;;
8177;SDS011;4130;48.740;9.132;2022-09-09T00:54:45;1.87;;;1.07;;
8177;SDS011;4130;48.740;9.132;2022-09-09T00:57:22;1.60;;;1.33;;
8177;SDS011;4130;48.740;9.132;2022-09-09T00:59:56;1.33;;;1.20;;
8177;SDS011;4130;48.740;9.132;2022-09-09T01:02:33;1.43;;;1.20;;
8177;SDS011;4130;48.740;9.132;2022-09-09T01:05:16;1.93;;;1.07;;
8177;SDS011;4130;48.740;9.132;2022-09-09T01:07:51;2.43;;;1.10;;
8177;SDS011;4130;48.740;9.132;2022-09-09T01:10:21;1.37;;;1.13;;
8177;SDS011;4130;48.740;9.132;2022-09-09T01:12:55;1.37;;;1.00;;
8177;SDS011;4130;48.740;9.132;2022-09-09T01:15:26;3.67;;;1.20;;
8177;SDS011;4130;48.740;9.132;2022-09-09T01:17:58;5.20;;;1.10;;
8177;SDS011;4130;48.740;9.132;2022-09-09T01:20:31;2.33;;;1.13;;
8177;SDS011;4130;48.740;9.132;2022-09-09T01:23:16;2.23;;;1.10;;
8177;SDS011;4130;48.740;9.132;2022-09-09T01:26:09;3.40;;;1.40;;
8177;SDS011;4130;48.740;9.132;2022-09-09T01:28:46;2.43;;;1.20;;
8177;SDS011;4130;48.740;9.132;2022-09-09T01:31:15;1.27;;;0.90;;
8177;SDS011;4130;48.740;9.132;2022-09-09T01:33:45;2.30;;;1.03;;
8177;SDS011;4130;48.740;9.132;2022-09-09T01:36:15;1.20;;;1.10;;
8177;SDS011;4130;48.740;9.132;2022-09-09T01:38:49;1.77;;;1.10;;
8177;SDS011;4130;48.740;9.132;2022-09-09T01:41:18;1.87;;;1.07;;
8177;SDS011;4130;48.740;9.132;2022-09-09T01:43:45;1.87;;;1.40;;
8177;SDS011;4130;48.740;9.132;2022-09-09T01:46:13;2.10;;;1.00;;
8177;SDS011;4130;48.740;9.132;2022-09-09T01:48:41;4.77;;;1.20;;
8177;SDS011;4130;48.740;9.132;2022-09-09T01:51:09;2.30;;;1.10;;
8177;SDS011;4130;48.740;9.132;2022-09-09T01:53:37;1.83;;;0.90;;
8177;SDS011;4130;48.740;9.132;2022-09-09T01:56:08;1.37;;;1.20;;
8177;SDS011;4130;48.740;9.132;2022-09-09T01:58:54;2.47;;;0.93;;
8177;SDS011;4130;48.740;9.132;2022-09-09T02:01:32;1.80;;;1.03;;
8177;SDS011;4130;48.740;9.132;2022-09-09T02:04:10;1.63;;;1.10;;
8177;SDS011;4130;48.740;9.132;2022-09-09T02:06:46;3.03;;;1.07;;
8177;SDS011;4130;48.740;9.132;2022-09-09T02:09:16;1.43;;;0.90;;
8177;SDS011;4130;48.740;9.132;2022-09-09T02:11:48;1.40;;;1.03;;
8177;SDS011;4130;48.740;9.132;2022-09-09T02:14:27;1.87;;;1.00;;
8177;SDS011;4130;48.740;9.132;2022-09-09T02:16:58;1.17;;;1.00;;
8177;SDS011;4130;48.740;9.132;2022-09-09T02:19:32;1.13;;;0.73;;
8177;SDS011;4130;48.740;9.132;2022-09-09T02:22:01;3.10;;;0.93;;
8177;SDS011;4130;48.740;9.132;2022-09-09T02:24:29;2.53;;;0.93;;
8177;SDS011;4130;48.740;9.132;2022-09-09T02:26:59;2.93;;;1.10;;
8177;SDS011;4130;48.740;9.132;2022-09-09T02:29:31;0.90;;;0.87;;
8177;SDS011;4130;48.740;9.132;2022-09-09T02:32:02;3.87;;;1.07;;
8177;SDS011;4130;48.740;9.132;2022-09-09T02:37:03;1.97;;;1.10;;
8177;SDS011;4130;48.740;9.132;2022-09-09T02:39:32;2.10;;;1.07;;
8177;SDS011;4130;48.740;9.132;2022-09-09T02:41:59;1.10;;;1.00;;
8177;SDS011;4130;48.740;9.132;2022-09-09T02:44:28;1.07;;;0.77;;
8177;SDS011;4130;48.740;9.132;2022-09-09T02:47:02;1.87;;;1.00;;
8177;SDS011;4130;48.740;9.132;2022-09-09T02:49:43;1.10;;;0.83;;
8177;SDS011;4130;48.740;9.132;2022-09-09T02:52:18;2.20;;;1.00;;
8177;SDS011;4130;48.740;9.132;2022-09-09T02:54:48;0.97;;;0.80;;
8177;SDS011;4130;48.740;9.132;2022-09-09T02:57:22;1.47;;;1.03;;
8177;SDS011;4130;48.740;9.132;2022-09-09T02:59:55;1.43;;;0.90;;
8177;SDS011;4130;48.740;9.132;2022-09-09T03:02:25;1.13;;;0.97;;
8177;SDS011;4130;48.740;9.132;2022-09-09T03:04:52;1.70;;;1.00;;
8177;SDS011;4130;48.740;9.132;2022-09-09T03:07:19;3.50;;;1.20;;
8177;SDS011;4130;48.740;9.132;2022-09-09T03:09:46;2.17;;;0.83;;
8177;SDS011;4130;48.740;9.132;2022-09-09T03:12:13;3.33;;;1.10;;
8177;SDS011;4130;48.740;9.132;2022-09-09T03:14:40;4.87;;;1.10;;
8177;SDS011;4130;48.740;9.132;2022-09-09T03:17:09;2.23;;;1.10;;
8177;SDS011;4130;48.740;9.132;2022-09-09T03:19:36;4.07;;;1.00;;
8177;SDS011;4130;48.740;9.132;2022-09-09T03:22:05;1.50;;;0.90;;
8177;SDS011;4130;48.740;9.132;2022-09-09T03:24:32;3.00;;;1.03;;
8177;SDS011;4130;48.740;9.132;2022-09-09T03:26:59;1.70;;;1.03;;
8177;SDS011;4130;48.740;9.132;2022-09-09T03:29:26;1.10;;;0.87;;
8177;SDS011;4130;48.740;9.132;2022-09-09T03:31:53;1.40;;;0.90;;
8177;SDS011;4130;48.740;9.132;2022-09-09T03:34:21;2.17;;;0.90;;
8177;SDS011;4130;48.740;9.132;2022-09-09T03:36:48;1.40;;;0.87;;
8177;SDS011;4130;48.740;9.132;2022-09-09T03:39:15;1.33;;;0.70;;
8177;SDS011;4130;48.740;9.132;2022-09-09T03:41:42;1.47;;;0.80;;
8177;SDS011;4130;48.740;9.132;2022-09-09T03:44:12;1.87;;;0.90;;
8177;SDS011;4130;48.740;9.132;2022-09-09T03:46:39;1.27;;;0.77;;
8177;SDS011;4130;48.740;9.132;2022-09-09T03:49:06;1.47;;;0.70;;
8177;SDS011;4130;48.740;9.132;2022-09-09T03:51:35;1.00;;;0.70;;
8177;SDS011;4130;48.740;9.132;2022-09-09T03:54:03;1.63;;;0.80;;
8177;SDS011;4130;48.740;9.132;2022-09-09T03:56:33;0.60;;;0.60;;
8177;SDS011;4130;48.740;9.132;2022-09-09T03:59:00;0.53;;;0.53;;
8177;SDS011;4130;48.740;9.132;2022-09-09T04:01:27;1.23;;;0.77;;
8177;SDS011;4130;48.740;9.132;2022-09-09T04:03:55;1.13;;;0.63;;
8177;SDS011;4130;48.740;9.132;2022-09-09T04:06:23;1.30;;;1.07;;
8177;SDS011;4130;48.740;9.132;2022-09-09T04:08:52;1.37;;;0.90;;
8177;SDS011;4130;48.740;9.132;2022-09-09T04:11:23;1.20;;;0.60;;
8177;SDS011;4130;48.740;9.132;2022-09-09T04:13:50;1.43;;;0.73;;
8177;SDS011;4130;48.740;9.132;2022-09-09T04:16:17;2.00;;;1.27;;
8177;SDS011;4130;48.740;9.132;2022-09-09T04:18:45;1.27;;;0.70;;
8177;SDS011;4130;48.740;9.132;2022-09-09T04:21:13;1.07;;;0.80;;
8177;SDS011;4130;48.740;9.132;2022-09-09T04:23:40;1.37;;;0.90;;
8177;SDS011;4130;48.740;9.132;2022-09-09T04:26:08;2.30;;;0.83;;
8177;SDS011;4130;48.740;9.132;2022-09-09T04:28:36;2.43;;;0.80;;
8177;SDS011;4130;48.740;9.132;2022-09-09T04:31:06;2.77;;;0.83;;
8177;SDS011;4130;48.740;9.132;2022-09-09T04:33:36;2.33;;;1.13;;
8177;SDS011;4130;48.740;9.132;2022-09-09T04:36:04;1.23;;;0.77;;
8177;SDS011;4130;48.740;9.132;2022-09-09T04:38:31;3.13;;;0.80;;
8177;SDS011;4130;48.740;9.132;2022-09-09T04:40:58;2.40;;;0.83;;
8177;SDS011;4130;48.740;9.132;2022-09-09T04:43:29;2.47;;;0.90;;
8177;SDS011;4130;48.740;9.132;2022-09-09T04:45:56;3.00;;;0.87;;
8177;SDS011;4130;48.740;9.132;2022-09-09T04:48:24;2.77;;;0.77;;
8177;SDS011;4130;48.740;9.132;2022-09-09T04:50:55;1.20;;;1.03;;
8177;SDS011;4130;48.740;9.132;2022-09-09T04:53:23;4.30;;;0.90;;
8177;SDS011;4130;48.740;9.132;2022-09-09T04:55:50;4.87;;;0.97;;
8177;SDS011;4130;48.740;9.132;2022-09-09T04:58:17;2.33;;;1.00;;
8177;SDS011;4130;48.740;9.132;2022-09-09T05:00:48;2.33;;;0.93;;
8177;SDS011;4130;48.740;9.132;2022-09-09T05:03:15;1.97;;;1.20;;
8177;SDS011;4130;48.740;9.132;2022-09-09T05:05:42;4.70;;;1.10;;
8177;SDS011;4130;48.740;9.132;2022-09-09T05:08:09;1.30;;;0.83;;
8177;SDS011;4130;48.740;9.132;2022-09-09T05:10:37;1.60;;;0.93;;
8177;SDS011;4130;48.740;9.132;2022-09-09T05:13:06;3.27;;;0.87;;
8177;SDS011;4130;48.740;9.132;2022-09-09T05:15:33;2.67;;;1.10;;
8177;SDS011;4130;48.740;9.132;2022-09-09T05:18:02;4.27;;;1.00;;
8177;SDS011;4130;48.740;9.132;2022-09-09T05:20:29;2.30;;;0.93;;
8177;SDS011;4130;48.740;9.132;2022-09-09T05:22:57;0.80;;;0.80;;
8177;SDS011;4130;48.740;9.132;2022-09-09T05:25:24;1.90;;;1.10;;
8177;SDS011;4130;48.740;9.132;2022-09-09T05:27:52;1.60;;;0.90;;
8177;SDS011;4130;48.740;9.132;2022-09-09T05:30:19;1.23;;;1.00;;
8177;SDS011;4130;48.740;9.132;2022-09-09T05:32:47;2.93;;;1.20;;
8177;SDS011;4130;48.740;9.132;2022-09-09T05:35:16;2.00;;;1.07;;
8177;SDS011;4130;48.740;9.132;2022-09-09T05:37:44;2.13;;;1.27;;
8177;SDS011;4130;48.740;9.132;2022-09-09T05:40:11;1.40;;;1.10;;
8177;SDS011;4130;48.740;9.132;2022-09-09T05:42:38;1.53;;;0.97;;
8177;SDS011;4130;48.740;9.132;2022-09-09T05:45:06;4.30;;;1.23;;
8177;SDS011;4130;48.740;9.132;2022-09-09T05:47:33;3.83;;;1.00;;
8177;SDS011;4130;48.740;9.132;2022-09-09T05:50:02;1.30;;;0.90;;
8177;SDS011;4130;48.740;9.132;2022-09-09T05:52:31;2.43;;;0.97;;
8177;SDS011;4130;48.740;9.132;2022-09-09T05:54:58;1.83;;;1.00;;
8177;SDS011;4130;48.740;9.132;2022-09-09T05:57:25;1.45;;;0.75;;
8177;SDS011;4130;48.740;9.132;2022-09-09T05:59:52;1.20;;;1.10;;
8177;SDS011;4130;48.740;9.132;2022-09-09T06:02:19;3.90;;;1.30;;
8177;SDS011;4130;48.740;9.132;2022-09-09T06:04:46;0.95;;;0.80;;
8177;SDS011;4130;48.740;9.132;2022-09-09T06:07:13;1.50;;;1.00;;
8177;SDS011;4130;48.740;9.132;2022-09-09T06:09:42;5.00;;;1.00;;
8177;SDS011;4130;48.740;9.132;2022-09-09T06:12:08;2.72;;;1.00;;
8177;SDS011;4130;48.740;9.132;2022-09-09T06:14:35;3.92;;;1.13;;
8177;SDS011;4130;48.740;9.132;2022-09-09T06:17:03;3.97;;;1.38;;
8177;SDS011;4130;48.740;9.132;2022-09-09T06:19:30;4.22;;;1.25;;
8177;SDS011;4130;48.740;9.132;2022-09-09T06:21:57;6.10;;;1.48;;
8177;SDS011;4130;48.740;9.132;2022-09-09T06:24:25;4.13;;;1.40;;
8177;SDS011;4130;48.740;9.132;2022-09-09T06:26:53;1.73;;;1.00;;
8177;SDS011;4130;48.740;9.132;2022-09-09T06:29:20;2.15;;;1.20;;
8177;SDS011;4130;48.740;9.132;2022-09-09T06:31:47;2.58;;;0.98;;
8177;SDS011;4130;48.740;9.132;2022-09-09T06:34:14;2.95;;;1.45;;
8177;SDS011;4130;48.740;9.132;2022-09-09T06:36:41;3.75;;;1.20;;
8177;SDS011;4130;48.740;9.132;2022-09-09T06:39:09;2.95;;;1.17;;
8177;SDS011;4130;48.740;9.132;2022-09-09T06:41:36;3.67;;;1.20;;
8177;SDS011;4130;48.740;9.132;2022-09-09T06:44:05;1.35;;;1.13;;
8177;SDS011;4130;48.740;9.132;2022-09-09T06:46:32;1.25;;;0.90;;
8177;SDS011;4130;48.740;9.132;2022-09-09T06:49:00;1.15;;;0.90;;
8177;SDS011;4130;48.740;9.132;2022-09-09T06:51:28;1.38;;;1.13;;
8177;SDS011;4130;48.740;9.132;2022-09-09T06:53:57;2.47;;;1.17;;
8177;SDS011;4130;48.740;9.132;2022-09-09T06:56:27;1.70;;;1.10;;
8177;SDS011;4130;48.740;9.132;2022-09-09T06:58:56;1.73;;;1.10;;
8177;SDS011;4130;48.740;9.132;2022-09-09T07:01:30;1.75;;;1.10;;
8177;SDS011;4130;48.740;9.132;2022-09-09T07:03:59;2.47;;;0.88;;
8177;SDS011;4130;48.740;9.132;2022-09-09T07:06:27;3.08;;;0.95;;
8177;SDS011;4130;48.740;9.132;2022-09-09T07:08:56;1.42;;;1.10;;
8177;SDS011;4130;48.740;9.132;2022-09-09T07:11:24;1.52;;;0.98;;
8177;SDS011;4130;48.740;9.132;2022-09-09T07:13:53;2.70;;;1.00;;
8177;SDS011;4130;48.740;9.132;2022-09-09T07:16:22;8.68;;;1.15;;
8177;SDS011;4130;48.740;9.132;2022-09-09T07:18:51;6.05;;;1.20;;
8177;SDS011;4130;48.740;9.132;2022-09-09T07:21:20;2.47;;;1.33;;
8177;SDS011;4130;48.740;9.132;2022-09-09T07:23:47;2.42;;;1.23;;
8177;SDS011;4130;48.740;9.132;2022-09-09T07:26:15;4.45;;;1.00;;
8177;SDS011;4130;48.740;9.132;2022-09-09T07:28:44;4.63;;;0.95;;
8177;SDS011;4130;48.740;9.132;2022-09-09T07:31:13;2.60;;;0.95;;
8177;SDS011;4130;48.740;9.132;2022-09-09T07:33:41;3.30;;;1.08;;
8177;SDS011;4130;48.740;9.132;2022-09-09T07:36:12;3.47;;;1.00;;
8177;SDS011;4130;48.740;9.132;2022-09-09T07:38:40;3.10;;;1.33;;
8177;SDS011;4130;48.740;9.132;2022-09-09T07:41:09;3.58;;;1.10;;
8177;SDS011;4130;48.740;9.132;2022-09-09T07:43:38;1.90;;;1.30;;
8177;SDS011;4130;48.740;9.132;2022-09-09T07:46:06;7.05;;;0.95;;
8177;SDS011;4130;48.740;9.132;2022-09-09T07:48:33;1.52;;;1.13;;
8177;SDS011;4130;48.740;9.132;2022-09-09T07:51:06;4.75;;;1.40;;
8177;SDS011;4130;48.740;9.132;2022-09-09T07:53:39;2.70;;;1.13;;
8177;SDS011;4130;48.740;9.132;2022-09-09T07:56:07;2.15;;;1.10;;
8177;SDS011;4130;48.740;9.132;2022-09-09T07:58:44;1.30;;;0.75;;
8177;SDS011;4130;48.740;9.132;2022-09-09T08:01:12;1.33;;;0.90;;
8177;SDS011;4130;48.740;9.132;2022-09-09T08:03:43;3.28;;;1.10;;
8177;SDS011;4130;48.740;9.132;2022-09-09T08:06:10;2.05;;;1.08;;
8177;SDS011;4130;48.740;9.132;2022-09-09T08:08:40;4.45;;;0.90;;
8177;SDS011;4130;48.740;9.132;2022-09-09T08:11:09;1.70;;;0.98;;
8177;SDS011;4130;48.740;9.132;2022-09-09T08:13:38;2.00;;;0.95;;
8177;SDS011;4130;48.740;9.132;2022-09-09T08:16:06;3.35;;;0.90;;
8177;SDS011;4130;48.740;9.132;2022-09-09T08:18:35;1.85;;;0.80;;
8177;SDS011;4130;48.740;9.132;2022-09-09T08:21:06;4.57;;;0.90;;
8177;SDS011;4130;48.740;9.132;2022-09-09T08:23:37;3.42;;;1.33;;
8177;SDS011;4130;48.740;9.132;2022-09-09T08:26:09;2.47;;;1.10;;
8177;SDS011;4130;48.740;9.132;2022-09-09T08:28:37;1.33;;;0.90;;
8177;SDS011;4130;48.740;9.132;2022-09-09T08:31:05;1.67;;;0.85;;
8177;SDS011;4130;48.740;9.132;2022-09-09T08:33:33;1.73;;;0.90;;
8177;SDS011;4130;48.740;9.132;2022-09-09T08:36:02;2.50;;;1.02;;
8177;SDS011;4130;48.740;9.132;2022-09-09T08:38:29;3.92;;;0.80;;
8177;SDS011;4130;48.740;9.132;2022-09-09T08:40:58;2.20;;;1.10;;
8177;SDS011;4130;48.740;9.132;2022-09-09T08:43:35;2.58;;;1.08;;
8177;SDS011;4130;48.740;9.132;2022-09-09T08:46:03;2.05;;;0.90;;
8177;SDS011;4130;48.740;9.132;2022-09-09T08:48:44;1.38;;;0.70;;
8177;SDS011;4130;48.740;9.132;2022-09-09T08:51:20;3.05;;;0.98;;
8177;SDS011;4130;48.740;9.132;2022-09-09T08:53:48;4.88;;;1.10;;
8177;SDS011;4130;48.740;9.132;2022-09-09T08:56:18;4.55;;;1.00;;
8177;SDS011;4130;48.740;9.132;2022-09-09T08:58:51;4.22;;;1.30;;
8177;SDS011;4130;48.740;9.132;2022-09-09T09:01:23;1.95;;;0.80;;
8177;SDS011;4130;48.740;9.132;2022-09-09T09:04:00;2.42;;;1.00;;
8177;SDS011;4130;48.740;9.132;2022-09-09T09:06:38;3.70;;;0.93;;
8177;SDS011;4130;48.740;9.132;2022-09-09T09:09:16;4.40;;;1.20;;
8177;SDS011;4130;48.740;9.132;2022-09-09T09:11:49;2.88;;;1.50;;
8177;SDS011;4130;48.740;9.132;2022-09-09T09:14:21;2.40;;;0.93;;
8177;SDS011;4130;48.740;9.132;2022-09-09T09:16:51;5.68;;;1.23;;
8177;SDS011;4130;48.740;9.132;2022-09-09T09:19:21;3.33;;;0.82;;
8177;SDS011;4130;48.740;9.132;2022-09-09T09:21:52;5.03;;;1.02;;
8177;SDS011;4130;48.740;9.132;2022-09-09T09:24:25;3.55;;;1.33;;
8177;SDS011;4130;48.740;9.132;2022-09-09T09:26:58;5.63;;;1.10;;
8177;SDS011;4130;48.740;9.132;2022-09-09T09:29:36;2.75;;;1.08;;
8177;SDS011;4130;48.740;9.132;2022-09-09T09:32:10;3.80;;;1.00;;
8177;SDS011;4130;48.740;9.132;2022-09-09T09:34:42;2.90;;;1.00;;
8177;SDS011;4130;48.740;9.132;2022-09-09T09:37:15;2.05;;;0.93;;
8177;SDS011;4130;48.740;9.132;2022-09-09T09:39:46;1.65;;;0.63;;
8177;SDS011;4130;48.740;9.132;2022-09-09T09:42:16;3.28;;;0.70;;
8177;SDS011;4130;48.740;9.132;2022-09-09T09:44:45;0.65;;;0.60;;
8177;SDS011;4130;48.740;9.132;2022-09-09T09:47:13;3.17;;;1.02;;
8177;SDS011;4130;48.740;9.132;2022-09-09T09:49:50;1.58;;;0.63;;
8177;SDS011;4130;48.740;9.132;2022-09-09T09:52:21;2.25;;;1.00;;
8177;SDS011;4130;48.740;9.132;2022-09-09T09:54:50;2.25;;;0.95;;
8177;SDS011;4130;48.740;9.132;2022-09-09T09:57:18;3.33;;;1.00;;
8177;SDS011;4130;48.740;9.132;2022-09-09T10:00:03;1.67;;;1.20;;
8177;SDS011;4130;48.740;9.132;2022-09-09T10:02:37;1.75;;;1.08;;
8177;SDS011;4130;48.740;9.132;2022-09-09T10:05:08;3.63;;;1.15;;
8177;SDS011;4130;48.740;9.132;2022-09-09T10:07:40;2.53;;;0.90;;
8177;SDS011;4130;48.740;9.132;2022-09-09T10:10:12;1.83;;;0.88;;
8177;SDS011;4130;48.740;9.132;2022-09-09T10:12:44;3.05;;;1.48;;
8177;SDS011;4130;48.740;9.132;2022-09-09T10:15:27;2.55;;;1.10;;
8177;SDS011;4130;48.740;9.132;2022-09-09T10:18:05;4.85;;;1.25;;
8177;SDS011;4130;48.740;9.132;2022-09-09T10:20:48;3.15;;;1.20;;
8177;SDS011;4130;48.740;9.132;2022-09-09T10:23:27;1.75;;;1.10;;
8177;SDS011;4130;48.740;9.132;2022-09-09T10:26:03;3.70;;;1.00;;
8177;SDS011;4130;48.740;9.132;2022-09-09T10:28:54;3.70;;;1.10;;
8177;SDS011;4130;48.740;9.132;2022-09-09T10:31:44;2.53;;;1.00;;
8177;SDS011;4130;48.740;9.132;2022-09-09T10:34:24;2.53;;;0.90;;
8177;SDS011;4130;48.740;9.132;2022-09-09T10:37:06;2.80;;;1.08;;
8177;SDS011;4130;48.740;9.132;2022-09-09T10:39:47;2.42;;;1.13;;
8177;SDS011;4130;48.740;9.132;2022-09-09T10:42:23;2.85;;;1.08;;
8177;SDS011;4130;48.740;9.132;2022-09-09T10:45:00;2.22;;;0.90;;
8177;SDS011;4130;48.740;9.132;2022-09-09T10:53:22;2.75;;;1.13;;
8177;SDS011;4130;48.740;9.132;2022-09-09T10:56:01;4.13;;;1.30;;
8177;SDS011;4130;48.740;9.132;2022-09-09T10:58:33;1.67;;;0.85;;
8177;SDS011;4130;48.740;9.132;2022-09-09T11:01:06;4.13;;;1.00;;
8177;SDS011;4130;48.740;9.132;2022-09-09T11:03:42;2.78;;;0.88;;
8177;SDS011;4130;48.740;9.132;2022-09-09T11:06:14;4.70;;;0.90;;
8177;SDS011;4130;48.740;9.132;2022-09-09T11:08:44;4.15;;;1.13;;
8177;SDS011;4130;48.740;9.132;2022-09-09T11:11:15;3.80;;;1.10;;
8177;SDS011;4130;48.740;9.132;2022-09-09T11:13:47;4.95;;;1.05;;
8177;SDS011;4130;48.740;9.132;2022-09-09T11:16:22;4.43;;;1.30;;
8177;SDS011;4130;48.740;9.132;2022-09-09T11:18:55;3.40;;;1.05;;
8177;SDS011;4130;48.740;9.132;2022-09-09T11:21:28;1.77;;;0.63;;
8177;SDS011;4130;48.740;9.132;2022-09-09T11:23:59;2.50;;;0.77;;
8177;SDS011;4130;48.740;9.132;2022-09-09T11:26:31;1.35;;;0.85;;
8177;SDS011;4130;48.740;9.132;2022-09-09T11:29:17;1.60;;;0.85;;
8177;SDS011;4130;48.740;9.132;2022-09-09T11:31:58;3.83;;;0.90;;
8177;SDS011;4130;48.740;9.132;2022-09-09T11:34:47;1.50;;;0.60;;
8177;SDS011;4130;48.740;9.132;2022-09-09T11:37:33;2.17;;;0.68;;
8177;SDS011;4130;48.740;9.132;2022-09-09T11:40:16;2.38;;;1.08;;
8177;SDS011;4130;48.740;9.132;2022-09-09T11:42:46;1.15;;;0.60;;
8177;SDS011;4130;48.740;9.132;2022-09-09T11:45:22;2.72;;;0.50;;
8177;SDS011;4130;48.740;9.132;2022-09-09T11:47:54;7.57;;;0.82;;
8177;SDS011;4130;48.740;9.132;2022-09-09T11:50:33;1.85;;;0.47;;
8177;SDS011;4130;48.740;9.132;2022-09-09T11:53:14;0.95;;;0.35;;
8177;SDS011;4130;48.740;9.132;2022-09-09T11:55:48;3.35;;;0.60;;
8177;SDS011;4130;48.740;9.132;2022-09-09T11:58:31;0.60;;;0.30;;
8177;SDS011;4130;48.740;9.132;2022-09-09T12:01:12;1.80;;;0.50;;
8177;SDS011;4130;48.740;9.132;2022-09-09T12:03:41;1.40;;;0.40;;
8177;SDS011;4130;48.740;9.132;2022-09-09T12:06:13;1.05;;;0.60;;
8177;SDS011;4130;48.740;9.132;2022-09-09T12:08:44;0.65;;;0.35;;
8177;SDS011;4130;48.740;9.132;2022-09-09T12:11:23;0.25;;;0.20;;
8177;SDS011;4130;48.740;9.132;2022-09-09T12:13:52;1.98;;;0.63;;
8177;SDS011;4130;48.740;9.132;2022-09-09T12:16:28;0.75;;;0.40;;
8177;SDS011;4130;48.740;9.132;2022-09-09T12:19:03;0.38;;;0.38;;
8177;SDS011;4130;48.740;9.132;2022-09-09T12:21:35;1.38;;;0.80;;
8177;SDS011;4130;48.740;9.132;2022-09-09T12:24:09;1.15;;;0.50;;
8177;SDS011;4130;48.740;9.132;2022-09-09T12:26:38;0.73;;;0.57;;
8177;SDS011;4130;48.740;9.132;2022-09-09T12:29:14;0.93;;;0.63;;
8177;SDS011;4130;48.740;9.132;2022-09-09T12:31:54;1.27;;;0.85;;
8177;SDS011;4130;48.740;9.132;2022-09-09T12:34:34;2.00;;;0.85;;
8177;SDS011;4130;48.740;9.132;2022-09-09T12:39:54;0.60;;;0.60;;
8177;SDS011;4130;48.740;9.132;2022-09-09T12:42:22;3.20;;;0.63;;
8177;SDS011;4130;48.740;9.132;2022-09-09T12:44:50;0.98;;;0.60;;
8177;SDS011;4130;48.740;9.132;2022-09-09T12:47:23;1.13;;;0.60;;
8177;SDS011;4130;48.740;9.132;2022-09-09T12:49:53;1.85;;;1.00;;
8177;SDS011;4130;48.740;9.132;2022-09-09T12:52:24;1.23;;;0.80;;
8177;SDS011;4130;48.740;9.132;2022-09-09T12:54:55;1.02;;;0.60;;
8177;SDS011;4130;48.740;9.132;2022-09-09T12:57:23;1.27;;;0.80;;
8177;SDS011;4130;48.740;9.132;2022-09-09T12:59:52;2.58;;;0.70;;
8177;SDS011;4130;48.740;9.132;2022-09-09T13:02:29;2.88;;;0.82;;
8177;SDS011;4130;48.740;9.132;2022-09-09T13:05:05;3.00;;;0.70;;
8177;SDS011;4130;48.740;9.132;2022-09-09T13:07:40;0.50;;;0.50;;
8177;SDS011;4130;48.740;9.132;2022-09-09T13:10:10;3.05;;;0.52;;
8177;SDS011;4130;48.740;9.132;2022-09-09T13:12:37;1.77;;;0.65;;
8177;SDS011;4130;48.740;9.132;2022-09-09T13:15:05;1.02;;;0.80;;
8177;SDS011;4130;48.740;9.132;2022-09-09T13:17:48;1.52;;;0.55;;
8177;SDS011;4130;48.740;9.132;2022-09-09T13:20:17;3.65;;;0.90;;
8177;SDS011;4130;48.740;9.132;2022-09-09T13:22:47;2.28;;;0.80;;
8177;SDS011;4130;48.740;9.132;2022-09-09T13:25:18;2.72;;;1.00;;
8177;SDS011;4130;48.740;9.132;2022-09-09T13:27:59;1.90;;;1.10;;
8177;SDS011;4130;48.740;9.132;2022-09-09T13:30:28;1.95;;;0.75;;
8177;SDS011;4130;48.740;9.132;2022-09-09T13:33:04;2.80;;;0.68;;
8177;SDS011;4130;48.740;9.132;2022-09-09T13:35:45;0.93;;;0.93;;
8177;SDS011;4130;48.740;9.132;2022-09-09T13:38:15;4.13;;;0.88;;
8177;SDS011;4130;48.740;9.132;2022-09-09T13:40:51;1.55;;;0.88;;
8177;SDS011;4130;48.740;9.132;2022-09-09T13:43:22;1.27;;;0.60;;
8177;SDS011;4130;48.740;9.132;2022-09-09T13:45:54;2.58;;;0.90;;
8177;SDS011;4130;48.740;9.132;2022-09-09T13:48:23;1.25;;;0.55;;
8177;SDS011;4130;48.740;9.132;2022-09-09T13:50:54;1.70;;;0.63;;
8177;SDS011;4130;48.740;9.132;2022-09-09T13:53:23;1.38;;;0.70;;
8177;SDS011;4130;48.740;9.132;2022-09-09T13:55:50;0.52;;;0.50;;
8177;SDS011;4130;48.740;9.132;2022-09-09T13:58:17;2.47;;;0.82;;
8177;SDS011;4130;48.740;9.132;2022-09-09T14:00:45;1.15;;;0.60;;
8177;SDS011;4130;48.740;9.132;2022-09-09T14:03:12;1.30;;;0.75;;
8177;SDS011;4130;48.740;9.132;2022-09-09T14:05:39;1.85;;;0.60;;
8177;SDS011;4130;48.740;9.132;2022-09-09T14:08:07;0.50;;;0.50;;
8177;SDS011;4130;48.740;9.132;2022-09-09T14:10:42;1.55;;;0.52;;
8177;SDS011;4130;48.740;9.132;2022-09-09T14:13:09;1.27;;;0.73;;
8177;SDS011;4130;48.740;9.132;2022-09-09T14:15:37;1.98;;;0.70;;
8177;SDS011;4130;48.740;9.132;2022-09-09T14:18:04;2.25;;;1.00;;
8177;SDS011;4130;48.740;9.132;2022-09-09T14:20:31;1.23;;;0.80;;
8177;SDS011;4130;48.740;9.132;2022-09-09T14:22:58;1.20;;;0.60;;
8177;SDS011;4130;48.740;9.132;2022-09-09T14:25:24;3.17;;;0.57;;
8177;SDS011;4130;48.740;9.132;2022-09-09T14:27:53;1.55;;;0.65;;
8177;SDS011;4130;48.740;9.132;2022-09-09T14:30:21;0.30;;;0.30;;
8177;SDS011;4130;48.740;9.132;2022-09-09T14:32:48;0.88;;;0.60;;
8177;SDS011;4130;48.740;9.132;2022-09-09T14:35:15;3.20;;;0.60;;
8177;SDS011;4130;48.740;9.132;2022-09-09T14:37:43;0.50;;;0.47;;
8177;SDS011;4130;48.740;9.132;2022-09-09T14:40:10;4.57;;;0.55;;
8177;SDS011;4130;48.740;9.132;2022-09-09T14:42:37;1.20;;;0.60;;
8177;SDS011;4130;48.740;9.132;2022-09-09T14:45:06;0.90;;;0.60;;
8177;SDS011;4130;48.740;9.132;2022-09-09T14:47:33;1.15;;;0.57;;
8177;SDS011;4130;48.740;9.132;2022-09-09T14:50:00;1.63;;;0.45;;
8177;SDS011;4130;48.740;9.132;2022-09-09T14:52:29;1.00;;;0.43;;
8177;SDS011;4130;48.740;9.132;2022-09-09T14:54:56;0.35;;;0.35;;
8177;SDS011;4130;48.740;9.132;2022-09-09T14:57:23;7.00;;;0.65;;
8177;SDS011;4130;48.740;9.132;2022-09-09T14:59:49;0.65;;;0.40;;
8177;SDS011;4130;48.740;9.132;2022-09-09T15:02:17;3.03;;;0.57;;
8177;SDS011;4130;48.740;9.132;2022-09-09T15:04:44;3.25;;;0.68;;
8177;SDS011;4130;48.740;9.132;2022-09-09T15:07:11;1.35;;;0.63;;
8177;SDS011;4130;48.740;9.132;2022-09-09T15:09:38;1.35;;;0.70;;
8177;SDS011;4130;48.740;9.132;2022-09-09T15:12:05;4.03;;;0.65;;
8177;SDS011;4130;48.740;9.132;2022-09-09T15:14:31;1.85;;;0.63;;
8177;SDS011;4130;48.740;9.132;2022-09-09T15:16:59;0.95;;;0.50;;
8177;SDS011;4130;48.740;9.132;2022-09-09T15:19:27;2.53;;;0.75;;
8177;SDS011;4130;48.740;9.132;2022-09-09T15:21:54;2.55;;;0.60;;
8177;SDS011;4130;48.740;9.132;2022-09-09T15:24:20;1.77;;;0.80;;
8177;SDS011;4130;48.740;9.132;2022-09-09T15:26:48;1.23;;;0.60;;
8177;SDS011;4130;48.740;9.132;2022-09-09T15:29:14;4.78;;;0.90;;
8177;SDS011;4130;48.740;9.132;2022-09-09T15:31:41;2.55;;;1.05;;
8177;SDS011;4130;48.740;9.132;2022-09-09T15:34:08;1.42;;;0.77;;
8177;SDS011;4130;48.740;9.132;2022-09-09T15:36:36;2.45;;;0.80;;
8177;SDS011;4130;48.740;9.132;2022-09-09T15:39:05;1.45;;;0.88;;
8177;SDS011;4130;48.740;9.132;2022-09-09T15:41:33;3.03;;;0.65;;
8177;SDS011;4130;48.740;9.132;2022-09-09T15:44:00;1.35;;;0.50;;
8177;SDS011;4130;48.740;9.132;2022-09-09T15:46:29;2.88;;;0.85;;
8177;SDS011;4130;48.740;9.132;2022-09-09T15:48:57;1.45;;;0.98;;
8177;SDS011;4130;48.740;9.132;2022-09-09T15:51:29;0.93;;;0.38;;